Niles, Ohio
Current Conditions -  °F | °C
As of 1:51 PM on Thursday 18 Dec 2014 (Local Time) from KYNG Reporting Station
Light Snow Light Snow  
Wind Chill: 20°   Ceiling: 1300
Heat Index: 29°   Visibility: 5mi
Dew Point: 23°   Wind: 9mph
Humidity: 78%   Direction: 250°WSW
Pressure: 30.13"   Gusts: NA
Location:  41.18°N, 80.76°W
Report Text: KYNG 181851Z 25008KT 5SM -SN OVC013 M02/M05 A3013 RMK AO2 SLP216 P0000 T10171050
Loading
Personal Weather Stations






























Interactive Weather Map New forecast layout! Learn more

10-Day Weather Forecast

Advertisements
Track Severe Weather on mobile